createdAt,value
2022-07-29T00:01:50.916Z,16.5
2022-07-29T00:06:57.013Z,16.6
2022-07-29T00:12:03.152Z,16.6
2022-07-29T00:17:08.221Z,16.6
2022-07-29T00:22:14.314Z,16.5
2022-07-29T00:27:20.411Z,16.5
2022-07-29T00:32:26.509Z,16.6
2022-07-29T00:37:32.615Z,16.4
2022-07-29T00:42:38.693Z,16.4
2022-07-29T00:47:44.826Z,16.3
2022-07-29T00:52:50.906Z,16.2
2022-07-29T00:57:57.009Z,16.1
2022-07-29T01:03:03.084Z,16
2022-07-29T01:08:09.180Z,15.9
2022-07-29T01:13:15.279Z,15.9
2022-07-29T01:18:21.370Z,15.8
2022-07-29T01:23:26.483Z,15.8
2022-07-29T01:28:32.584Z,15.7
2022-07-29T01:33:38.688Z,15.7
2022-07-29T01:38:44.776Z,15.6
2022-07-29T01:43:50.862Z,15.5
2022-07-29T01:48:56.978Z,15.5
2022-07-29T01:54:03.054Z,15.5
2022-07-29T01:59:09.156Z,15.4
2022-07-29T02:04:15.264Z,15.4
2022-07-29T02:09:21.360Z,15.4
2022-07-29T02:14:27.454Z,15.4
2022-07-29T02:19:33.559Z,15.4
2022-07-29T02:24:39.650Z,15.4
2022-07-29T02:29:44.744Z,15.5
2022-07-29T02:34:50.845Z,15.6
2022-07-29T02:39:56.937Z,15.7
2022-07-29T02:45:03.038Z,15.7
2022-07-29T02:50:09.127Z,15.7
2022-07-29T02:55:15.237Z,15.6
2022-07-29T03:00:21.324Z,15.5
2022-07-29T03:05:27.428Z,15.5
2022-07-29T03:10:33.510Z,15.3
2022-07-29T03:15:39.602Z,15.2
2022-07-29T03:20:45.706Z,15.2
2022-07-29T03:25:51.798Z,15
2022-07-29T03:30:57.900Z,15
2022-07-29T03:36:02.998Z,14.9
2022-07-29T03:41:09.113Z,14.8
2022-07-29T03:46:15.203Z,14.8
2022-07-29T03:51:21.306Z,14.8
2022-07-29T03:56:27.401Z,14.8
2022-07-29T04:01:33.481Z,14.8
2022-07-29T04:06:38.628Z,14.8
2022-07-29T04:11:44.699Z,14.9
2022-07-29T04:16:50.813Z,15
2022-07-29T04:21:56.899Z,15.2
2022-07-29T04:27:02.987Z,15.4
2022-07-29T04:32:09.087Z,15.6
2022-07-29T04:37:15.194Z,15.8
2022-07-29T04:42:21.284Z,16.1
2022-07-29T04:47:27.370Z,16.3
2022-07-29T04:52:33.477Z,16.6
2022-07-29T04:57:39.567Z,16.9
2022-07-29T05:02:45.663Z,17.1
2022-07-29T05:07:51.769Z,17.3
2022-07-29T05:12:56.881Z,17.7
2022-07-29T05:18:02.956Z,17.8
2022-07-29T05:23:09.056Z,17.9
2022-07-29T05:28:15.155Z,18
2022-07-29T05:33:21.248Z,18.1
2022-07-29T05:38:27.359Z,18.1
2022-07-29T05:43:33.451Z,18.1
2022-07-29T05:48:39.536Z,18.1
2022-07-29T05:53:45.644Z,18
2022-07-29T05:58:51.731Z,18.1
2022-07-29T06:03:57.842Z,18.2
2022-07-29T06:09:03.923Z,18.3
2022-07-29T06:14:10.018Z,18.5
2022-07-29T06:19:15.141Z,18.5
2022-07-29T06:24:21.220Z,18.5
2022-07-29T06:34:33.427Z,19.1
2022-07-29T06:39:39.530Z,19.5
2022-07-29T06:44:45.615Z,19.7
2022-07-29T06:49:51.706Z,19.6
2022-07-29T06:54:57.802Z,19.7
2022-07-29T07:00:03.900Z,19.8
2022-07-29T07:05:09.995Z,19.7
2022-07-29T07:10:16.106Z,19.9
2022-07-29T07:15:22.185Z,20
2022-07-29T07:20:28.263Z,20.2
2022-07-29T07:25:33.401Z,20.4
2022-07-29T07:30:39.481Z,20.3
2022-07-29T07:35:45.612Z,20.3
2022-07-29T07:40:51.679Z,20.3
2022-07-29T07:45:57.778Z,20.8
2022-07-29T07:51:03.876Z,21.6
2022-07-29T07:56:09.964Z,22.2
2022-07-29T08:01:16.048Z,22.2
2022-07-29T08:06:22.153Z,21.9
2022-07-29T08:11:28.243Z,21.9
2022-07-29T08:16:34.350Z,22
2022-07-29T08:21:40.441Z,22.1
2022-07-29T08:26:46.546Z,22.8
2022-07-29T08:31:51.652Z,22.8
2022-07-29T08:36:57.757Z,22.9
2022-07-29T08:42:03.857Z,23.3
2022-07-29T08:47:09.954Z,23.8
2022-07-29T08:52:16.030Z,24.6
2022-07-29T08:57:22.143Z,24.9
2022-07-29T09:02:28.235Z,25.7
2022-07-29T09:07:34.327Z,27
2022-07-29T09:12:40.407Z,28.7
2022-07-29T09:17:46.507Z,29.5
2022-07-29T09:22:52.617Z,30
2022-07-29T09:27:58.717Z,30.3
2022-07-29T09:33:04.804Z,31.4
2022-07-29T09:38:09.923Z,32
2022-07-29T09:43:16.015Z,31.7
2022-07-29T09:48:22.115Z,32.4
2022-07-29T09:53:28.202Z,32.5
2022-07-29T09:58:34.309Z,33.3
2022-07-29T10:03:40.415Z,32.6
2022-07-29T10:08:46.508Z,33.6
2022-07-29T10:13:52.594Z,34.1
2022-07-29T10:18:58.690Z,33.8
2022-07-29T10:24:04.804Z,34.3
2022-07-29T10:29:10.911Z,34.7
2022-07-29T10:34:17.014Z,35.3
2022-07-29T10:39:23.091Z,35.6
2022-07-29T10:44:28.244Z,35.3
2022-07-29T10:49:34.300Z,35
2022-07-29T10:54:40.424Z,36.5
2022-07-29T10:59:46.509Z,35.2
2022-07-29T11:04:52.656Z,36.4
2022-07-29T11:09:58.714Z,36.7
2022-07-29T11:15:04.820Z,36.6
2022-07-29T11:20:10.920Z,36.1
2022-07-29T11:25:16.994Z,37.2
2022-07-29T11:30:23.100Z,37
2022-07-29T11:35:29.202Z,37.3
2022-07-29T11:40:35.336Z,37.2
2022-07-29T11:45:41.417Z,37.4
2022-07-29T11:50:46.604Z,39
2022-07-29T11:55:52.604Z,38
2022-07-29T12:00:58.748Z,38
2022-07-29T12:06:04.843Z,35.7
2022-07-29T12:11:10.933Z,36.2
2022-07-29T12:16:17.054Z,37.9
2022-07-29T12:21:23.119Z,38.4
2022-07-29T12:26:29.208Z,37.4
2022-07-29T12:31:35.308Z,34.2
2022-07-29T12:36:41.418Z,34.7
2022-07-29T12:41:47.536Z,33.4
2022-07-29T12:46:53.611Z,32.4
2022-07-29T12:51:59.729Z,32.1
2022-07-29T12:57:04.833Z,32.2
2022-07-29T13:02:10.911Z,31.8
2022-07-29T13:07:17.042Z,31.5
2022-07-29T13:12:23.121Z,31.3
2022-07-29T13:17:29.208Z,30.7
2022-07-29T13:22:35.317Z,30.6
2022-07-29T13:27:41.433Z,30.5
2022-07-29T13:32:47.503Z,30.5
2022-07-29T13:37:53.600Z,30.6
2022-07-29T13:42:59.712Z,30.4
2022-07-29T13:48:05.808Z,30.1
2022-07-29T13:53:11.917Z,30.3
2022-07-29T13:58:18.013Z,30.7
2022-07-29T14:03:23.115Z,30.8
2022-07-29T14:08:29.195Z,31.2
2022-07-29T14:13:35.304Z,31.2
2022-07-29T14:18:41.390Z,31.5
2022-07-29T14:23:47.497Z,31.5
2022-07-29T14:28:53.599Z,31.1
2022-07-29T14:33:59.686Z,30.9
2022-07-29T14:39:05.790Z,30.8
2022-07-29T14:44:11.892Z,30.7
2022-07-29T14:49:17.978Z,30.3
2022-07-29T14:54:24.075Z,30.1
2022-07-29T14:59:30.192Z,30
2022-07-29T15:04:36.272Z,30
2022-07-29T15:09:41.394Z,29.9
2022-07-29T15:14:47.512Z,29.9
2022-07-29T15:19:53.562Z,30.4
2022-07-29T15:24:59.664Z,31.1
2022-07-29T15:30:05.765Z,31.5
2022-07-29T15:35:11.857Z,31.5
2022-07-29T15:40:17.954Z,31.3
2022-07-29T15:45:24.053Z,30.8
2022-07-29T15:50:30.133Z,30.1
2022-07-29T15:55:36.247Z,29.7
2022-07-29T16:00:42.368Z,29.6
2022-07-29T16:05:48.453Z,29.6
2022-07-29T16:10:54.561Z,29.5
2022-07-29T16:15:59.654Z,29.5
2022-07-29T16:21:05.743Z,29.6
2022-07-29T16:26:11.867Z,29.3
2022-07-29T16:31:17.942Z,29.3
2022-07-29T16:36:24.036Z,29.5
2022-07-29T16:41:30.137Z,29.5
2022-07-29T16:46:36.256Z,28.6
2022-07-29T16:51:42.312Z,28.1
2022-07-29T16:56:48.413Z,27.5
2022-07-29T17:01:54.508Z,27.2
2022-07-29T17:07:00.609Z,26.9
2022-07-29T17:12:06.697Z,26.7
2022-07-29T17:17:12.809Z,26.5
2022-07-29T17:22:17.902Z,26.4
2022-07-29T17:27:24.017Z,26.3
2022-07-29T17:32:30.116Z,26.2
2022-07-29T17:37:36.235Z,26.1
2022-07-29T17:42:42.296Z,26
2022-07-29T17:47:48.378Z,25.8
2022-07-29T17:52:54.490Z,25.6
2022-07-29T17:58:00.576Z,25.5
2022-07-29T18:03:06.672Z,25.5
2022-07-29T18:08:12.772Z,25.3
2022-07-29T18:13:18.857Z,25.1
2022-07-29T18:18:24.963Z,24.9
2022-07-29T18:23:31.064Z,24.8
2022-07-29T18:28:36.164Z,24.6
2022-07-29T18:33:42.259Z,24.4
2022-07-29T18:38:48.365Z,24.2
2022-07-29T18:43:54.455Z,23.9
2022-07-29T18:49:00.555Z,23.7
2022-07-29T18:54:06.643Z,23.5
2022-07-29T18:59:12.745Z,23.3
2022-07-29T19:04:18.851Z,23.1
2022-07-29T19:09:24.991Z,22.9
2022-07-29T19:14:31.041Z,22.8
2022-07-29T19:19:37.142Z,22.6
2022-07-29T19:24:43.216Z,22.5
2022-07-29T19:29:49.330Z,22.4
2022-07-29T19:34:54.440Z,22.2
2022-07-29T19:40:00.553Z,22.2
2022-07-29T19:45:06.630Z,22.2
2022-07-29T19:50:12.727Z,22.1
2022-07-29T19:55:18.810Z,22.1
2022-07-29T20:00:24.909Z,22
2022-07-29T20:05:31.019Z,22
2022-07-29T20:10:37.106Z,22
2022-07-29T20:15:43.199Z,21.9
2022-07-29T20:20:49.291Z,21.9
2022-07-29T20:25:55.385Z,21.9
2022-07-29T20:31:01.482Z,21.9
2022-07-29T20:36:07.584Z,22.1
2022-07-29T20:41:12.696Z,22.2
2022-07-29T20:46:18.789Z,22.1
2022-07-29T20:51:24.890Z,22
2022-07-29T20:56:30.985Z,22
2022-07-29T21:01:37.083Z,21.9
2022-07-29T21:06:43.177Z,21.8
2022-07-29T21:11:48.287Z,21.9
2022-07-29T21:16:54.376Z,21.9
2022-07-29T21:22:00.476Z,21.7
2022-07-29T21:27:06.615Z,21.6
2022-07-29T21:32:12.683Z,21.7
2022-07-29T21:37:18.772Z,21.8
2022-07-29T21:42:24.875Z,21.9
2022-07-29T21:47:30.962Z,21.9
2022-07-29T21:52:37.056Z,21.9
2022-07-29T21:57:43.147Z,21.9
2022-07-29T22:02:49.249Z,21.7
2022-07-29T22:07:55.352Z,21.2
2022-07-29T22:13:01.437Z,20.8
2022-07-29T22:18:06.542Z,20.2
2022-07-29T22:23:12.650Z,20
2022-07-29T22:28:18.734Z,19.9
2022-07-29T22:33:24.839Z,20
2022-07-29T22:38:30.935Z,20.1
2022-07-29T22:43:37.019Z,20.2
2022-07-29T22:48:43.147Z,20.1
2022-07-29T22:53:49.218Z,19.8
2022-07-29T22:58:55.313Z,19.5
2022-07-29T23:04:01.423Z,19.3
2022-07-29T23:09:07.527Z,19.1
2022-07-29T23:14:13.596Z,18.8
2022-07-29T23:19:19.692Z,18.7
2022-07-29T23:24:24.818Z,18.5
2022-07-29T23:29:30.926Z,18.5
2022-07-29T23:34:37.003Z,18.5
2022-07-29T23:39:43.152Z,18.5
2022-07-29T23:44:49.196Z,18.4
2022-07-29T23:49:55.290Z,18.3
2022-07-29T23:55:01.377Z,18.1
